06D

Rolla Municipal Airport

Rolla, North Dakota, USA
METAR K06D 251855Z AUTO VRB05KT 10SM FEW045 13/02 A2996 RMK AO2
Observed Flight Rules
Sep-25 @ 18:55 UTC (20 minutes ago) Visual Flight Rules
Wind Visibility Clouds
Variable at 5 knots 10 miles
  • Few at 4,500' AGL
Temperatures Readings
Current 13°C / 55°F
Dewpoint 2°C / 36°F
Humidity 47%
Altimeter 29.96" Hg
Pressure 1015 hPa
Elevation 556
METAR K06D 251855Z AUTO VRB05KT 10SM FEW045 13/02 A2996 RMK AO2
Observed Flight Rules
Sep-25 @ 18:55 UTC
(20 minutes ago)
VFR
Wind Visibility
Variable at 5 knots 10 miles
Clouds
  • Few at 4,500' AGL
Temperature Dewpoint
13°C / 55°F 2°C / 36°F
Humidity Altimeter Pressure
47% 29.96" Hg 1015 hPa